Nisshoumaru — JD3093 — position and weather

sailwx.info

Track history (hours):
 
Tides and Currents Weather Stations Pressure Air Temp Water Temp Dewpoint Dewpoint Depression Visibility Wind Speed Wind Dir Waves Ship Positions

Nisshoumaru

Last reported at 2015-May-19 09:31 UTC. Time now 2015-May-27 01:53 UTC.
Position N 34°36' E 134°55'.

Length 76 m; draft 4 m.

Type: Cargo ship. MMSI: 431001549.

Date/timePositionNaut miles runAvg speedWind from/ knotsBaromVisibWave heightAir tempDewpointWater temp
2015-May-19 09:31N 34°36' E 134°55'1212.4
2015-May-19 08:33N 34°36' E 135°10'1212.1
2015-May-19 07:32N 34°36' E 135°25'2 0.3
2015-May-19 01:27N 34°35' E 135°27'7 8.3
2015-May-19 00:33N 34°34' E 135°18'1512.1
2015-May-18 23:17N 34°22' E 135°07'710.1
2015-May-18 22:33N 34°15' E 135°05'2 2.0
2015-May-18 21:33N 34°15' E 135°07'0 0.0
2015-May-18 20:33N 34°15' E 135°07'0 0.1
2015-May-18 19:33N 34°15' E 135°07'0 0.0
2015-May-18 18:33N 34°15' E 135°07'0 0.0
2015-May-18 17:33N 34°15' E 135°07'0 0.0
2015-May-18 16:33N 34°15' E 135°07'0 0.0
2015-May-18 15:33N 34°15' E 135°07'0 0.0
2015-May-18 14:33N 34°15' E 135°07'0 0.0
2015-May-18 13:33N 34°15' E 135°07'0 0.0
2015-May-18 12:33N 34°15' E 135°07'0 0.1
2015-May-18 11:34N 34°15' E 135°07'1 1.0
2015-May-18 10:34N 34°15' E 135°06'9 8.6
2015-May-18 09:32N 34°23' E 135°04'1111.1
2015-May-18 08:33N 34°34' E 135°04'1110.4
2015-May-18 07:29N 34°38' E 134°51'  
2015-May-12 15:33N 33°49' E 130°19'1211.6
2015-May-12 14:33N 33°42' E 130°07'  
2015-May-10 08:06N 33°38' E 129°52'712.2
2015-May-10 07:33N 33°41' E 129°59'3811.9
2015-May-10 04:19N 33°58' E 130°41'  
Track history (hours):
 
Tides and Currents Weather Stations Pressure Air Temp Water Temp Dewpoint Dewpoint Depression Visibility Wind Speed Wind Dir Waves Ship Positions

Nisshoumaru

Last reported at 2015-May-19 09:31 UTC. Time now 2015-May-27 01:53 UTC.
Position N 34°36' E 134°55'.

Length 76 m; draft 4 m.

Type: Cargo ship. MMSI: 431001549.

Date/timePositionNaut miles runAvg speedWind from/ knotsBaromVisibWave heightAir tempDewpointWater temp
2015-May-19 09:31N 34°36' E 134°55'1212.4
2015-May-19 08:33N 34°36' E 135°10'1212.1
2015-May-19 07:32N 34°36' E 135°25'2 0.3
2015-May-19 01:27N 34°35' E 135°27'7 8.3
2015-May-19 00:33N 34°34' E 135°18'1512.1
2015-May-18 23:17N 34°22' E 135°07'710.1
2015-May-18 22:33N 34°15' E 135°05'2 2.0
2015-May-18 21:33N 34°15' E 135°07'0 0.0
2015-May-18 20:33N 34°15' E 135°07'0 0.1
2015-May-18 19:33N 34°15' E 135°07'0 0.0
2015-May-18 18:33N 34°15' E 135°07'0 0.0
2015-May-18 17:33N 34°15' E 135°07'0 0.0
2015-May-18 16:33N 34°15' E 135°07'0 0.0
2015-May-18 15:33N 34°15' E 135°07'0 0.0
2015-May-18 14:33N 34°15' E 135°07'0 0.0
2015-May-18 13:33N 34°15' E 135°07'0 0.0
2015-May-18 12:33N 34°15' E 135°07'0 0.1
2015-May-18 11:34N 34°15' E 135°07'1 1.0
2015-May-18 10:34N 34°15' E 135°06'9 8.6
2015-May-18 09:32N 34°23' E 135°04'1111.1
2015-May-18 08:33N 34°34' E 135°04'1110.4
2015-May-18 07:29N 34°38' E 134°51'  
2015-May-12 15:33N 33°49' E 130°19'1211.6
2015-May-12 14:33N 33°42' E 130°07'  
2015-May-10 08:06N 33°38' E 129°52'712.2
2015-May-10 07:33N 33°41' E 129°59'3811.9
2015-May-10 04:19N 33°58' E 130°41'  

Dump ship's entire track history